sensor_id;sensor_type;location;lat;lon;timestamp;pressure;altitude;pressure_sealevel;temperature;humidity
59106;BME280;44891;50.204;8.132;2023-01-25T00:02:45;100001.28;;;0.70;100.00
59106;BME280;44891;50.204;8.132;2023-01-25T00:06:47;99990.97;;;0.80;100.00
59106;BME280;44891;50.204;8.132;2023-01-25T00:10:49;99988.50;;;0.78;99.82
59106;BME280;44891;50.204;8.132;2023-01-25T00:14:53;99988.41;;;0.80;99.60
59106;BME280;44891;50.204;8.132;2023-01-25T00:18:54;99986.34;;;0.84;99.90
59106;BME280;44891;50.204;8.132;2023-01-25T00:22:56;99982.03;;;0.94;99.29
59106;BME280;44891;50.204;8.132;2023-01-25T00:26:58;99985.28;;;0.96;99.23
59106;BME280;44891;50.204;8.132;2023-01-25T00:31:02;99986.78;;;0.98;98.87
59106;BME280;44891;50.204;8.132;2023-01-25T00:35:06;99977.69;;;1.04;98.99
59106;BME280;44891;50.204;8.132;2023-01-25T00:39:10;99975.63;;;0.98;98.38
59106;BME280;44891;50.204;8.132;2023-01-25T00:43:12;99979.56;;;0.92;98.78
59106;BME280;44891;50.204;8.132;2023-01-25T00:47:16;99970.06;;;0.93;98.66
59106;BME280;44891;50.204;8.132;2023-01-25T00:51:18;99963.63;;;0.87;98.99
59106;BME280;44891;50.204;8.132;2023-01-25T00:55:20;99964.84;;;0.83;99.43
59106;BME280;44891;50.204;8.132;2023-01-25T00:59:23;99964.00;;;0.73;99.68
59106;BME280;44891;50.204;8.132;2023-01-25T01:03:26;99951.19;;;0.62;100.00
59106;BME280;44891;50.204;8.132;2023-01-25T01:07:28;99964.31;;;0.79;100.00
59106;BME280;44891;50.204;8.132;2023-01-25T01:11:30;99960.22;;;0.87;100.00
59106;BME280;44891;50.204;8.132;2023-01-25T01:15:34;99960.63;;;0.92;99.56
59106;BME280;44891;50.204;8.132;2023-01-25T01:19:37;99956.41;;;0.91;98.80
59106;BME280;44891;50.204;8.132;2023-01-25T01:23:39;99960.91;;;0.89;99.15
59106;BME280;44891;50.204;8.132;2023-01-25T01:27:41;99963.47;;;0.79;99.48
59106;BME280;44891;50.204;8.132;2023-01-25T01:31:43;99963.75;;;0.86;99.65
59106;BME280;44891;50.204;8.132;2023-01-25T01:35:57;99956.78;;;0.76;99.54
59106;BME280;44891;50.204;8.132;2023-01-25T01:39:59;99956.13;;;0.74;100.00
59106;BME280;44891;50.204;8.132;2023-01-25T01:44:02;99955.69;;;0.79;100.00
59106;BME280;44891;50.204;8.132;2023-01-25T01:48:04;99951.22;;;0.81;100.00
59106;BME280;44891;50.204;8.132;2023-01-25T01:52:08;99946.59;;;0.85;99.76
59106;BME280;44891;50.204;8.132;2023-01-25T01:56:14;99952.72;;;0.74;99.78
59106;BME280;44891;50.204;8.132;2023-01-25T02:00:18;99952.16;;;0.70;100.00
59106;BME280;44891;50.204;8.132;2023-01-25T02:04:21;99949.59;;;0.80;100.00
59106;BME280;44891;50.204;8.132;2023-01-25T02:08:26;99946.50;;;0.86;100.00
59106;BME280;44891;50.204;8.132;2023-01-25T02:12:32;99942.31;;;0.54;100.00
59106;BME280;44891;50.204;8.132;2023-01-25T02:16:35;99940.94;;;0.50;100.00
59106;BME280;44891;50.204;8.132;2023-01-25T02:20:37;99940.16;;;0.60;100.00
59106;BME280;44891;50.204;8.132;2023-01-25T02:24:41;99944.44;;;0.40;100.00
59106;BME280;44891;50.204;8.132;2023-01-25T02:28:49;99937.69;;;0.58;100.00
59106;BME280;44891;50.204;8.132;2023-01-25T02:32:53;99929.16;;;0.67;100.00
59106;BME280;44891;50.204;8.132;2023-01-25T02:36:55;99938.25;;;0.62;100.00
59106;BME280;44891;50.204;8.132;2023-01-25T02:40:58;99936.78;;;0.69;100.00
59106;BME280;44891;50.204;8.132;2023-01-25T02:45:06;99940.75;;;0.73;100.00
59106;BME280;44891;50.204;8.132;2023-01-25T02:49:10;99925.47;;;0.60;100.00
59106;BME280;44891;50.204;8.132;2023-01-25T02:53:12;99934.72;;;0.72;100.00
59106;BME280;44891;50.204;8.132;2023-01-25T02:57:14;99931.50;;;0.80;100.00
59106;BME280;44891;50.204;8.132;2023-01-25T03:01:20;99928.91;;;0.80;100.00
59106;BME280;44891;50.204;8.132;2023-01-25T03:05:22;99919.50;;;0.79;100.00
59106;BME280;44891;50.204;8.132;2023-01-25T03:09:24;99919.78;;;0.76;100.00
59106;BME280;44891;50.204;8.132;2023-01-25T03:13:27;99914.19;;;0.71;100.00
59106;BME280;44891;50.204;8.132;2023-01-25T03:17:30;99914.69;;;0.65;100.00
59106;BME280;44891;50.204;8.132;2023-01-25T03:21:32;99911.72;;;0.60;100.00
59106;BME280;44891;50.204;8.132;2023-01-25T03:25:34;99904.34;;;0.65;100.00
59106;BME280;44891;50.204;8.132;2023-01-25T03:29:44;99900.44;;;0.61;100.00
59106;BME280;44891;50.204;8.132;2023-01-25T03:33:55;99895.66;;;0.66;100.00
59106;BME280;44891;50.204;8.132;2023-01-25T03:38:01;99895.53;;;0.67;100.00
59106;BME280;44891;50.204;8.132;2023-01-25T03:42:03;99891.88;;;0.79;100.00
59106;BME280;44891;50.204;8.132;2023-01-25T03:46:06;99885.88;;;0.79;100.00
59106;BME280;44891;50.204;8.132;2023-01-25T03:50:10;99891.59;;;0.73;100.00
59106;BME280;44891;50.204;8.132;2023-01-25T03:54:13;99888.75;;;0.76;100.00
59106;BME280;44891;50.204;8.132;2023-01-25T03:58:15;99888.75;;;0.76;100.00
59106;BME280;44891;50.204;8.132;2023-01-25T04:02:17;99891.47;;;0.74;100.00
59106;BME280;44891;50.204;8.132;2023-01-25T04:06:20;99887.13;;;0.75;100.00
59106;BME280;44891;50.204;8.132;2023-01-25T04:10:24;99895.13;;;0.62;100.00
59106;BME280;44891;50.204;8.132;2023-01-25T04:14:26;99883.00;;;0.53;100.00
59106;BME280;44891;50.204;8.132;2023-01-25T04:18:32;99883.69;;;0.65;100.00
59106;BME280;44891;50.204;8.132;2023-01-25T04:22:36;99874.31;;;0.73;100.00
59106;BME280;44891;50.204;8.132;2023-01-25T04:26:39;99882.91;;;0.74;100.00
59106;BME280;44891;50.204;8.132;2023-01-25T04:30:41;99878.25;;;0.77;100.00
59106;BME280;44891;50.204;8.132;2023-01-25T04:34:43;99871.69;;;0.64;100.00
59106;BME280;44891;50.204;8.132;2023-01-25T04:38:51;99860.41;;;0.55;100.00
59106;BME280;44891;50.204;8.132;2023-01-25T04:42:53;99866.81;;;0.61;100.00
59106;BME280;44891;50.204;8.132;2023-01-25T04:46:56;99846.75;;;0.34;100.00
59106;BME280;44891;50.204;8.132;2023-01-25T04:50:58;99848.69;;;0.41;100.00
59106;BME280;44891;50.204;8.132;2023-01-25T04:55:02;99851.13;;;0.43;100.00
59106;BME280;44891;50.204;8.132;2023-01-25T04:59:09;99837.81;;;0.47;100.00
59106;BME280;44891;50.204;8.132;2023-01-25T05:03:11;99833.72;;;0.45;100.00
59106;BME280;44891;50.204;8.132;2023-01-25T05:07:14;99829.34;;;0.45;100.00
59106;BME280;44891;50.204;8.132;2023-01-25T05:11:18;99826.34;;;0.31;100.00
59106;BME280;44891;50.204;8.132;2023-01-25T05:15:35;99826.19;;;0.22;100.00
59106;BME280;44891;50.204;8.132;2023-01-25T05:19:37;99832.75;;;0.26;100.00
59106;BME280;44891;50.204;8.132;2023-01-25T05:23:41;99828.63;;;0.24;100.00
59106;BME280;44891;50.204;8.132;2023-01-25T05:27:45;99829.19;;;0.28;100.00
59106;BME280;44891;50.204;8.132;2023-01-25T05:32:09;99821.84;;;0.23;100.00
59106;BME280;44891;50.204;8.132;2023-01-25T05:36:12;99826.47;;;0.29;100.00
59106;BME280;44891;50.204;8.132;2023-01-25T05:40:15;99818.44;;;0.22;100.00
59106;BME280;44891;50.204;8.132;2023-01-25T05:44:19;99823.06;;;0.29;100.00
59106;BME280;44891;50.204;8.132;2023-01-25T05:48:23;99821.56;;;0.26;100.00
59106;BME280;44891;50.204;8.132;2023-01-25T05:52:26;99817.38;;;0.35;100.00
59106;BME280;44891;50.204;8.132;2023-01-25T05:56:28;99817.25;;;0.36;100.00
59106;BME280;44891;50.204;8.132;2023-01-25T06:00:32;99819.53;;;0.39;100.00
59106;BME280;44891;50.204;8.132;2023-01-25T06:04:33;99811.66;;;0.31;100.00
59106;BME280;44891;50.204;8.132;2023-01-25T06:08:36;99802.53;;;0.27;100.00
59106;BME280;44891;50.204;8.132;2023-01-25T06:12:39;99796.56;;;0.36;100.00
59106;BME280;44891;50.204;8.132;2023-01-25T06:16:42;99799.56;;;0.41;100.00
59106;BME280;44891;50.204;8.132;2023-01-25T06:21:03;99791.81;;;0.41;100.00
59106;BME280;44891;50.204;8.132;2023-01-25T06:25:10;99799.25;;;0.25;100.00
59106;BME280;44891;50.204;8.132;2023-01-25T06:29:11;99792.31;;;0.25;100.00
59106;BME280;44891;50.204;8.132;2023-01-25T06:33:15;99807.97;;;0.24;100.00
59106;BME280;44891;50.204;8.132;2023-01-25T06:37:17;99797.09;;;0.20;100.00
59106;BME280;44891;50.204;8.132;2023-01-25T06:41:19;99793.84;;;0.28;100.00
59106;BME280;44891;50.204;8.132;2023-01-25T06:45:22;99802.53;;;0.27;100.00
59106;BME280;44891;50.204;8.132;2023-01-25T06:49:25;99800.50;;;0.31;100.00
59106;BME280;44891;50.204;8.132;2023-01-25T06:53:28;99802.66;;;0.25;100.00
59106;BME280;44891;50.204;8.132;2023-01-25T06:57:30;99809.59;;;0.25;100.00
59106;BME280;44891;50.204;8.132;2023-01-25T07:01:32;99807.28;;;0.32;100.00
59106;BME280;44891;50.204;8.132;2023-01-25T07:05:35;99802.00;;;0.33;100.00
59106;BME280;44891;50.204;8.132;2023-01-25T07:09:37;99807.03;;;0.35;100.00
59106;BME280;44891;50.204;8.132;2023-01-25T07:13:39;99811.59;;;0.12;100.00
59106;BME280;44891;50.204;8.132;2023-01-25T07:17:41;99809.81;;;0.03;100.00
59106;BME280;44891;50.204;8.132;2023-01-25T07:21:44;99803.44;;;0.07;100.00
59106;BME280;44891;50.204;8.132;2023-01-25T07:25:47;99807.81;;;0.16;100.00
59106;BME280;44891;50.204;8.132;2023-01-25T07:29:49;99804.03;;;0.20;100.00
59106;BME280;44891;50.204;8.132;2023-01-25T07:33:52;99802.94;;;0.22;100.00
59106;BME280;44891;50.204;8.132;2023-01-25T07:37:55;99799.41;;;0.23;100.00
59106;BME280;44891;50.204;8.132;2023-01-25T07:41:57;99794.50;;;0.20;100.00
59106;BME280;44891;50.204;8.132;2023-01-25T07:46:05;99793.41;;;0.23;100.00
59106;BME280;44891;50.204;8.132;2023-01-25T07:50:09;99792.19;;;0.17;100.00
59106;BME280;44891;50.204;8.132;2023-01-25T07:54:13;99792.31;;;0.25;100.00
59106;BME280;44891;50.204;8.132;2023-01-25T07:58:15;99787.03;;;0.37;100.00
59106;BME280;44891;50.204;8.132;2023-01-25T08:02:17;99787.84;;;0.37;100.00
59106;BME280;44891;50.204;8.132;2023-01-25T08:06:21;99783.50;;;0.38;100.00
59106;BME280;44891;50.204;8.132;2023-01-25T08:10:28;99793.56;;;0.31;100.00
59106;BME280;44891;50.204;8.132;2023-01-25T08:14:30;99798.06;;;0.29;100.00
59106;BME280;44891;50.204;8.132;2023-01-25T08:18:32;99801.72;;;0.26;100.00
59106;BME280;44891;50.204;8.132;2023-01-25T08:22:34;99804.19;;;0.28;100.00
59106;BME280;44891;50.204;8.132;2023-01-25T08:26:37;99810.69;;;0.32;100.00
59106;BME280;44891;50.204;8.132;2023-01-25T08:30:39;99802.69;;;0.35;100.00
59106;BME280;44891;50.204;8.132;2023-01-25T08:34:41;99804.41;;;0.25;100.00
59106;BME280;44891;50.204;8.132;2023-01-25T08:38:43;99787.31;;;0.34;100.00
59106;BME280;44891;50.204;8.132;2023-01-25T08:42:47;99779.97;;;0.29;100.00
59106;BME280;44891;50.204;8.132;2023-01-25T08:46:49;99781.31;;;0.14;100.00
59106;BME280;44891;50.204;8.132;2023-01-25T08:50:51;99777.25;;;0.31;100.00
59106;BME280;44891;50.204;8.132;2023-01-25T08:54:52;99779.56;;;0.34;100.00
59106;BME280;44891;50.204;8.132;2023-01-25T08:58:56;99777.28;;;0.40;100.00
59106;BME280;44891;50.204;8.132;2023-01-25T09:02:58;99779.56;;;0.43;100.00
59106;BME280;44891;50.204;8.132;2023-01-25T09:06:59;99779.16;;;0.38;100.00
59106;BME280;44891;50.204;8.132;2023-01-25T09:11:01;99778.63;;;0.44;100.00
59106;BME280;44891;50.204;8.132;2023-01-25T09:15:05;99776.19;;;0.33;100.00
59106;BME280;44891;50.204;8.132;2023-01-25T09:19:08;99768.28;;;0.35;100.00
59106;BME280;44891;50.204;8.132;2023-01-25T09:23:10;99764.75;;;0.36;100.00
59106;BME280;44891;50.204;8.132;2023-01-25T09:27:12;99756.19;;;0.35;100.00
59106;BME280;44891;50.204;8.132;2023-01-25T09:31:15;99754.94;;;0.30;100.00
59106;BME280;44891;50.204;8.132;2023-01-25T09:35:47;99751.69;;;0.37;100.00
59106;BME280;44891;50.204;8.132;2023-01-25T09:39:49;99752.75;;;0.25;100.00
59106;BME280;44891;50.204;8.132;2023-01-25T09:43:55;99746.09;;;0.32;100.00
59106;BME280;44891;50.204;8.132;2023-01-25T09:48:08;99749.50;;;0.42;100.00
59106;BME280;44891;50.204;8.132;2023-01-25T09:52:17;99745.44;;;0.49;100.00
59106;BME280;44891;50.204;8.132;2023-01-25T09:56:22;99740.25;;;0.49;100.00
59106;BME280;44891;50.204;8.132;2023-01-25T10:00:27;99737.53;;;0.51;100.00
59106;BME280;44891;50.204;8.132;2023-01-25T10:04:33;99740.81;;;0.53;100.00
59106;BME280;44891;50.204;8.132;2023-01-25T10:08:37;99733.34;;;0.40;100.00
59106;BME280;44891;50.204;8.132;2023-01-25T10:12:41;99725.84;;;0.37;100.00
59106;BME280;44891;50.204;8.132;2023-01-25T10:16:49;99727.75;;;0.54;100.00
59106;BME280;44891;50.204;8.132;2023-01-25T10:20:57;99726.91;;;0.83;100.00
59106;BME280;44891;50.204;8.132;2023-01-25T10:25:10;99728.13;;;0.79;100.00
59106;BME280;44891;50.204;8.132;2023-01-25T10:29:19;99718.47;;;0.81;100.00
59106;BME280;44891;50.204;8.132;2023-01-25T10:33:22;99716.03;;;0.70;100.00
59106;BME280;44891;50.204;8.132;2023-01-25T10:37:26;99708.44;;;0.68;100.00
59106;BME280;44891;50.204;8.132;2023-01-25T10:41:29;99698.75;;;0.70;99.66
59106;BME280;44891;50.204;8.132;2023-01-25T10:45:36;99697.38;;;0.76;99.45
59106;BME280;44891;50.204;8.132;2023-01-25T10:49:39;99683.75;;;0.84;98.43
59106;BME280;44891;50.204;8.132;2023-01-25T10:53:42;99673.53;;;0.92;97.69
59106;BME280;44891;50.204;8.132;2023-01-25T10:57:53;99664.44;;;0.78;98.34
59106;BME280;44891;50.204;8.132;2023-01-25T11:01:57;99658.16;;;0.90;96.61
59106;BME280;44891;50.204;8.132;2023-01-25T11:06:27;99653.97;;;0.79;96.79
59106;BME280;44891;50.204;8.132;2023-01-25T11:10:32;99653.13;;;0.79;97.45
59106;BME280;44891;50.204;8.132;2023-01-25T11:14:34;99647.41;;;0.85;98.96
59106;BME280;44891;50.204;8.132;2023-01-25T11:18:36;99644.16;;;0.83;97.81
59106;BME280;44891;50.204;8.132;2023-01-25T11:22:38;99632.03;;;0.93;97.56
59106;BME280;44891;50.204;8.132;2023-01-25T11:26:50;99629.03;;;0.88;97.78
59106;BME280;44891;50.204;8.132;2023-01-25T11:31:12;99627.75;;;1.02;98.19
59106;BME280;44891;50.204;8.132;2023-01-25T11:35:15;99628.38;;;0.86;98.24
59106;BME280;44891;50.204;8.132;2023-01-25T11:39:20;99624.13;;;0.85;98.73
59106;BME280;44891;50.204;8.132;2023-01-25T11:43:29;99624.03;;;0.77;99.69
59106;BME280;44891;50.204;8.132;2023-01-25T11:47:37;99612.00;;;0.86;98.89
59106;BME280;44891;50.204;8.132;2023-01-25T11:51:42;99594.59;;;0.88;98.65
59106;BME280;44891;50.204;8.132;2023-01-25T11:55:51;99588.28;;;1.00;97.72
59106;BME280;44891;50.204;8.132;2023-01-25T12:00:03;99579.47;;;0.93;95.98
59106;BME280;44891;50.204;8.132;2023-01-25T12:08:33;99565.22;;;0.79;97.67
59106;BME280;44891;50.204;8.132;2023-01-25T12:12:41;99555.88;;;0.68;99.94
59106;BME280;44891;50.204;8.132;2023-01-25T12:16:50;99542.03;;;0.60;100.00
59106;BME280;44891;50.204;8.132;2023-01-25T12:20:59;99538.13;;;0.46;100.00
59106;BME280;44891;50.204;8.132;2023-01-25T12:25:06;99531.47;;;0.53;100.00
59106;BME280;44891;50.204;8.132;2023-01-25T12:29:19;99528.97;;;0.61;100.00
59106;BME280;44891;50.204;8.132;2023-01-25T12:33:26;99512.75;;;0.69;100.00
59106;BME280;44891;50.204;8.132;2023-01-25T12:37:31;99505.66;;;0.71;100.00
59106;BME280;44891;50.204;8.132;2023-01-25T12:41:37;99504.84;;;0.70;100.00
59106;BME280;44891;50.204;8.132;2023-01-25T12:45:40;99495.50;;;0.60;100.00
59106;BME280;44891;50.204;8.132;2023-01-25T12:49:47;99488.56;;;0.60;99.95
59106;BME280;44891;50.204;8.132;2023-01-25T12:53:51;99486.81;;;0.61;100.00
59106;BME280;44891;50.204;8.132;2023-01-25T12:57:55;99477.13;;;0.63;99.53
59106;BME280;44891;50.204;8.132;2023-01-25T13:02:01;99462.81;;;0.68;100.00
59106;BME280;44891;50.204;8.132;2023-01-25T13:06:12;99449.97;;;0.76;100.00
59106;BME280;44891;50.204;8.132;2023-01-25T13:10:16;99446.75;;;0.65;99.73
59106;BME280;44891;50.204;8.132;2023-01-25T13:14:25;99439.41;;;0.42;100.00
59106;BME280;44891;50.204;8.132;2023-01-25T13:18:32;99427.69;;;0.48;100.00
59106;BME280;44891;50.204;8.132;2023-01-25T13:22:56;99428.50;;;0.48;100.00
59106;BME280;44891;50.204;8.132;2023-01-25T13:27:00;99422.75;;;0.54;100.00
59106;BME280;44891;50.204;8.132;2023-01-25T13:31:02;99421.38;;;0.60;99.82
59106;BME280;44891;50.204;8.132;2023-01-25T13:35:23;99421.03;;;0.73;99.71
59106;BME280;44891;50.204;8.132;2023-01-25T13:39:42;99416.19;;;0.60;98.28
59106;BME280;44891;50.204;8.132;2023-01-25T13:44:07;99401.28;;;0.44;98.58
59106;BME280;44891;50.204;8.132;2023-01-25T13:48:11;99399.16;;;0.40;100.00
59106;BME280;44891;50.204;8.132;2023-01-25T13:52:14;99387.22;;;0.57;100.00
59106;BME280;44891;50.204;8.132;2023-01-25T13:56:28;99389.88;;;0.65;99.15
59106;BME280;44891;50.204;8.132;2023-01-25T14:00:30;99371.72;;;0.57;100.00
59106;BME280;44891;50.204;8.132;2023-01-25T14:04:32;99367.59;;;0.64;99.83
59106;BME280;44891;50.204;8.132;2023-01-25T14:08:34;99306.03;;;0.14;99.72
59106;BME280;44891;50.204;8.132;2023-01-25T14:12:38;99360.25;;;0.41;99.74
59106;BME280;44891;50.204;8.132;2023-01-25T14:16:41;99357.28;;;0.36;100.00
59106;BME280;44891;50.204;8.132;2023-01-25T14:20:43;99354.53;;;0.38;100.00
59106;BME280;44891;50.204;8.132;2023-01-25T14:24:49;99350.19;;;0.38;100.00
59106;BME280;44891;50.204;8.132;2023-01-25T14:29:01;99338.22;;;0.37;100.00
59106;BME280;44891;50.204;8.132;2023-01-25T14:33:03;99326.66;;;0.41;100.00
59106;BME280;44891;50.204;8.132;2023-01-25T14:37:17;99323.53;;;0.20;100.00
59106;BME280;44891;50.204;8.132;2023-01-25T14:41:23;99325.88;;;0.31;100.00
59106;BME280;44891;50.204;8.132;2023-01-25T14:45:27;99314.13;;;0.19;100.00
59106;BME280;44891;50.204;8.132;2023-01-25T14:49:30;99319.06;;;0.12;100.00
59106;BME280;44891;50.204;8.132;2023-01-25T14:53:32;99318.44;;;0.28;100.00
59106;BME280;44891;50.204;8.132;2023-01-25T14:57:35;99307.31;;;0.28;100.00
59106;BME280;44891;50.204;8.132;2023-01-25T15:01:39;99311.28;;;0.22;100.00
59106;BME280;44891;50.204;8.132;2023-01-25T15:05:43;99298.00;;;0.35;100.00
59106;BME280;44891;50.204;8.132;2023-01-25T15:09:58;99294.09;;;0.48;100.00
59106;BME280;44891;50.204;8.132;2023-01-25T15:14:01;99279.47;;;0.57;100.00
59106;BME280;44891;50.204;8.132;2023-01-25T15:22:23;99267.94;;;0.51;100.00
59106;BME280;44891;50.204;8.132;2023-01-25T15:26:25;99276.38;;;0.36;100.00
59106;BME280;44891;50.204;8.132;2023-01-25T15:30:27;99271.84;;;0.38;100.00
59106;BME280;44891;50.204;8.132;2023-01-25T15:34:29;99272.16;;;0.35;100.00
59106;BME280;44891;50.204;8.132;2023-01-25T15:38:34;99269.94;;;0.22;100.00
59106;BME280;44891;50.204;8.132;2023-01-25T15:42:36;99264.69;;;0.14;100.00
59106;BME280;44891;50.204;8.132;2023-01-25T15:46:38;99267.44;;;0.30;100.00
59106;BME280;44891;50.204;8.132;2023-01-25T15:50:41;99263.38;;;0.28;100.00
59106;BME280;44891;50.204;8.132;2023-01-25T15:54:44;99255.47;;;0.29;100.00
59106;BME280;44891;50.204;8.132;2023-01-25T15:58:48;99264.69;;;0.32;100.00
59106;BME280;44891;50.204;8.132;2023-01-25T16:02:51;99257.03;;;0.22;100.00
59106;BME280;44891;50.204;8.132;2023-01-25T16:06:53;99257.22;;;0.11;100.00
59106;BME280;44891;50.204;8.132;2023-01-25T16:10:56;99265.34;;;0.16;100.00
59106;BME280;44891;50.204;8.132;2023-01-25T16:14:58;99249.94;;;0.24;100.00
59106;BME280;44891;50.204;8.132;2023-01-25T16:19:00;99258.56;;;0.33;100.00
59106;BME280;44891;50.204;8.132;2023-01-25T16:23:02;99254.38;;;0.14;100.00
59106;BME280;44891;50.204;8.132;2023-01-25T16:27:07;99258.41;;;0.16;100.00
59106;BME280;44891;50.204;8.132;2023-01-25T16:31:12;99257.25;;;0.29;100.00
59106;BME280;44891;50.204;8.132;2023-01-25T16:35:15;99250.31;;;0.29;100.00
59106;BME280;44891;50.204;8.132;2023-01-25T16:39:17;99252.19;;;0.09;100.00
59106;BME280;44891;50.204;8.132;2023-01-25T16:43:21;99237.72;;;-0.02;100.00
59106;BME280;44891;50.204;8.132;2023-01-25T16:47:23;99250.03;;;0.05;100.00
59106;BME280;44891;50.204;8.132;2023-01-25T16:51:25;99247.47;;;0.05;100.00
59106;BME280;44891;50.204;8.132;2023-01-25T16:55:28;99240.97;;;0.01;100.00
59106;BME280;44891;50.204;8.132;2023-01-25T16:59:31;99239.56;;;0.06;100.00
59106;BME280;44891;50.204;8.132;2023-01-25T17:03:33;99234.16;;;-0.01;100.00
59106;BME280;44891;50.204;8.132;2023-01-25T17:07:35;99241.84;;;-0.09;100.00
59106;BME280;44891;50.204;8.132;2023-01-25T17:11:37;99237.88;;;-0.03;100.00
59106;BME280;44891;50.204;8.132;2023-01-25T17:15:40;99234.91;;;-0.08;100.00
59106;BME280;44891;50.204;8.132;2023-01-25T17:19:42;99238.41;;;0.01;100.00
59106;BME280;44891;50.204;8.132;2023-01-25T17:23:44;99178.53;;;-0.31;100.00
59106;BME280;44891;50.204;8.132;2023-01-25T17:27:46;99227.13;;;0.02;100.00
59106;BME280;44891;50.204;8.132;2023-01-25T17:31:49;99225.50;;;0.01;100.00
59106;BME280;44891;50.204;8.132;2023-01-25T17:35:51;99218.41;;;0.03;100.00
59106;BME280;44891;50.204;8.132;2023-01-25T17:39:57;99211.25;;;-0.04;100.00
59106;BME280;44891;50.204;8.132;2023-01-25T17:43:59;99210.13;;;-0.01;100.00
59106;BME280;44891;50.204;8.132;2023-01-25T17:48:03;99200.84;;;-0.12;100.00
59106;BME280;44891;50.204;8.132;2023-01-25T17:52:05;99197.66;;;-0.06;100.00
59106;BME280;44891;50.204;8.132;2023-01-25T17:56:07;99202.38;;;-0.01;100.00
59106;BME280;44891;50.204;8.132;2023-01-25T18:00:09;99194.03;;;0.05;100.00
59106;BME280;44891;50.204;8.132;2023-01-25T18:04:16;99187.69;;;-0.01;100.00
59106;BME280;44891;50.204;8.132;2023-01-25T18:08:18;99194.31;;;-0.16;100.00
59106;BME280;44891;50.204;8.132;2023-01-25T18:12:20;99195.75;;;-0.04;100.00
59106;BME280;44891;50.204;8.132;2023-01-25T18:16:23;99184.88;;;-0.07;100.00
59106;BME280;44891;50.204;8.132;2023-01-25T18:20:26;99168.81;;;-0.01;100.00
59106;BME280;44891;50.204;8.132;2023-01-25T18:24:29;99173.03;;;0.00;100.00
59106;BME280;44891;50.204;8.132;2023-01-25T18:28:31;99162.03;;;-0.02;100.00
59106;BME280;44891;50.204;8.132;2023-01-25T18:32:33;99150.66;;;0.09;100.00
59106;BME280;44891;50.204;8.132;2023-01-25T18:36:36;99143.34;;;-0.14;100.00
59106;BME280;44891;50.204;8.132;2023-01-25T18:40:38;99141.56;;;-0.13;100.00
59106;BME280;44891;50.204;8.132;2023-01-25T18:44:41;99136.06;;;-0.18;100.00
59106;BME280;44891;50.204;8.132;2023-01-25T18:48:47;99136.50;;;-0.23;100.00
59106;BME280;44891;50.204;8.132;2023-01-25T18:52:52;99137.84;;;-0.19;100.00
59106;BME280;44891;50.204;8.132;2023-01-25T18:56:55;99129.88;;;-0.25;100.00
59106;BME280;44891;50.204;8.132;2023-01-25T19:01:01;99129.19;;;-0.28;100.00
59106;BME280;44891;50.204;8.132;2023-01-25T19:05:03;99126.91;;;-0.13;100.00
59106;BME280;44891;50.204;8.132;2023-01-25T19:09:07;99109.88;;;-0.06;100.00
59106;BME280;44891;50.204;8.132;2023-01-25T19:13:09;99103.25;;;-0.26;100.00
59106;BME280;44891;50.204;8.132;2023-01-25T19:17:10;99107.72;;;-0.28;100.00
59106;BME280;44891;50.204;8.132;2023-01-25T19:21:13;99099.69;;;-0.25;100.00
59106;BME280;44891;50.204;8.132;2023-01-25T19:25:16;99099.16;;;-0.29;100.00
59106;BME280;44891;50.204;8.132;2023-01-25T19:29:18;99091.03;;;-0.34;100.00
59106;BME280;44891;50.204;8.132;2023-01-25T19:33:20;99097.47;;;-0.20;100.00
59106;BME280;44891;50.204;8.132;2023-01-25T19:37:22;99096.59;;;-0.29;100.00
59106;BME280;44891;50.204;8.132;2023-01-25T19:41:26;99092.16;;;-0.36;100.00
59106;BME280;44891;50.204;8.132;2023-01-25T19:45:28;99084.84;;;-0.41;100.00
59106;BME280;44891;50.204;8.132;2023-01-25T19:49:30;99083.19;;;-0.32;100.00
59106;BME280;44891;50.204;8.132;2023-01-25T19:53:32;99081.84;;;-0.36;100.00
59106;BME280;44891;50.204;8.132;2023-01-25T19:57:36;99063.47;;;-0.51;100.00
59106;BME280;44891;50.204;8.132;2023-01-25T20:01:38;99065.41;;;-0.35;100.00
59106;BME280;44891;50.204;8.132;2023-01-25T20:05:43;99068.56;;;-0.41;100.00
59106;BME280;44891;50.204;8.132;2023-01-25T20:09:45;99078.88;;;-0.41;100.00
59106;BME280;44891;50.204;8.132;2023-01-25T20:13:49;99072.41;;;-0.45;100.00
59106;BME280;44891;50.204;8.132;2023-01-25T20:17:51;99082.00;;;-0.38;100.00
59106;BME280;44891;50.204;8.132;2023-01-25T20:21:53;99074.22;;;-0.56;100.00
59106;BME280;44891;50.204;8.132;2023-01-25T20:25:55;99074.47;;;-0.49;100.00
59106;BME280;44891;50.204;8.132;2023-01-25T20:29:59;99078.38;;;-0.45;100.00
59106;BME280;44891;50.204;8.132;2023-01-25T20:34:02;99080.41;;;-0.48;100.00
59106;BME280;44891;50.204;8.132;2023-01-25T20:38:04;99069.69;;;-0.44;100.00
59106;BME280;44891;50.204;8.132;2023-01-25T20:42:06;99051.84;;;-0.37;100.00
59106;BME280;44891;50.204;8.132;2023-01-25T20:46:09;99047.97;;;-0.33;100.00
59106;BME280;44891;50.204;8.132;2023-01-25T20:50:11;99042.47;;;-0.38;100.00
59106;BME280;44891;50.204;8.132;2023-01-25T20:54:13;99042.47;;;-0.56;100.00
59106;BME280;44891;50.204;8.132;2023-01-25T20:58:15;99038.41;;;-0.59;100.00
59106;BME280;44891;50.204;8.132;2023-01-25T21:02:18;99030.94;;;-0.62;100.00
59106;BME280;44891;50.204;8.132;2023-01-25T21:06:21;99033.97;;;-0.66;100.00
59106;BME280;44891;50.204;8.132;2023-01-25T21:10:23;99026.44;;;-0.60;100.00
59106;BME280;44891;50.204;8.132;2023-01-25T21:14:25;99020.63;;;-0.62;100.00
59106;BME280;44891;50.204;8.132;2023-01-25T21:18:29;99021.00;;;-0.57;100.00
59106;BME280;44891;50.204;8.132;2023-01-25T21:22:30;99011.88;;;-0.69;100.00
59106;BME280;44891;50.204;8.132;2023-01-25T21:26:33;99003.53;;;-0.80;100.00
59106;BME280;44891;50.204;8.132;2023-01-25T21:30:36;98996.59;;;-0.80;100.00
59106;BME280;44891;50.204;8.132;2023-01-25T21:34:39;98996.69;;;-0.72;100.00
59106;BME280;44891;50.204;8.132;2023-01-25T21:38:41;98987.47;;;-0.92;100.00
59106;BME280;44891;50.204;8.132;2023-01-25T21:42:44;98977.28;;;-0.94;100.00